createdAt,value
2023-01-28T00:00:45.958Z,146.00
2023-01-28T00:01:45.949Z,146.00
2023-01-28T00:02:46.263Z,146.25
2023-01-28T00:03:46.085Z,146.90
2023-01-28T00:04:45.906Z,146.64
2023-01-28T00:05:45.903Z,147.16
2023-01-28T00:06:45.898Z,147.16
2023-01-28T00:07:45.894Z,147.03
2023-01-28T00:08:45.857Z,147.16
2023-01-28T00:09:45.855Z,147.16
2023-01-28T00:10:45.830Z,148.33
2023-01-28T00:11:45.823Z,148.73
2023-01-28T00:12:45.844Z,149.26
2023-01-28T00:13:45.806Z,150.34
2023-01-28T00:14:45.809Z,151.02
2023-01-28T00:15:45.776Z,151.57
2023-01-28T00:16:45.817Z,151.43
2023-01-28T00:17:45.785Z,151.98
2023-01-28T00:18:45.745Z,152.26
2023-01-28T00:19:45.784Z,152.54
2023-01-28T00:20:45.735Z,153.38
2023-01-28T00:21:45.711Z,153.10
2023-01-28T00:22:45.709Z,153.38
2023-01-28T00:23:45.710Z,153.94
2023-01-28T00:24:45.685Z,154.37
2023-01-28T00:25:45.737Z,154.94
2023-01-28T00:26:45.673Z,154.94
2023-01-28T00:27:45.668Z,155.81
2023-01-28T00:28:45.658Z,155.67
2023-01-28T00:29:45.630Z,155.67
2023-01-28T00:30:45.708Z,155.81
2023-01-28T00:31:45.631Z,155.67
2023-01-28T00:32:45.621Z,155.96
2023-01-28T00:33:45.613Z,156.54
2023-01-28T00:34:45.639Z,156.98
2023-01-28T00:35:45.575Z,158.02
2023-01-28T00:36:45.558Z,158.18
2023-01-28T00:37:45.566Z,158.18
2023-01-28T00:38:45.541Z,158.48
2023-01-28T00:39:45.557Z,158.48
2023-01-28T00:40:45.653Z,158.48
2023-01-28T00:41:45.558Z,158.93
2023-01-28T00:42:45.505Z,159.23
2023-01-28T00:43:45.602Z,158.93
2023-01-28T00:44:45.479Z,158.32
2023-01-28T00:45:45.507Z,158.02
2023-01-28T00:46:45.478Z,157.28
2023-01-28T00:47:45.557Z,156.98
2023-01-28T00:48:45.427Z,156.25
2023-01-28T00:49:45.443Z,155.81
2023-01-28T00:50:45.464Z,156.10
2023-01-28T00:51:45.397Z,155.96
2023-01-28T00:52:45.420Z,156.40
2023-01-28T00:53:45.367Z,156.54
2023-01-28T00:54:45.368Z,156.10
2023-01-28T00:55:45.383Z,155.96
2023-01-28T00:56:45.360Z,155.81
2023-01-28T00:57:45.354Z,156.40
2023-01-28T00:58:45.324Z,156.54
2023-01-28T00:59:45.310Z,157.28
2023-01-28T01:00:45.343Z,157.58
2023-01-28T01:01:45.358Z,157.43
2023-01-28T01:02:45.312Z,157.73
2023-01-28T01:03:45.265Z,157.88
2023-01-28T01:04:45.254Z,157.88
2023-01-28T01:05:45.275Z,158.32
2023-01-28T01:06:45.230Z,158.78
2023-01-28T01:07:45.235Z,158.93
2023-01-28T01:08:45.212Z,158.78
2023-01-28T01:09:45.216Z,159.23
2023-01-28T01:10:45.215Z,159.69
2023-01-28T01:11:45.183Z,159.23
2023-01-28T01:12:45.163Z,159.99
2023-01-28T01:13:45.172Z,159.54
2023-01-28T01:14:45.165Z,159.54
2023-01-28T01:15:45.211Z,159.99
2023-01-28T01:16:45.131Z,160.15
2023-01-28T01:17:45.112Z,160.61
2023-01-28T01:18:45.107Z,160.92
2023-01-28T01:19:45.098Z,160.46
2023-01-28T01:20:45.106Z,160.61
2023-01-28T01:21:45.104Z,160.46
2023-01-28T01:22:45.080Z,160.46
2023-01-28T01:23:45.057Z,160.92
2023-01-28T01:24:45.059Z,161.54
2023-01-28T01:25:45.063Z,162.01
2023-01-28T01:26:45.019Z,162.33
2023-01-28T01:27:45.014Z,162.80
2023-01-28T01:28:45.008Z,162.80
2023-01-28T01:29:44.988Z,163.12
2023-01-28T01:30:45.009Z,163.12
2023-01-28T01:31:45.057Z,163.92
2023-01-28T01:32:44.954Z,164.41
2023-01-28T01:33:44.953Z,164.90
2023-01-28T01:34:44.937Z,165.55
2023-01-28T01:35:44.966Z,166.38
2023-01-28T01:36:44.954Z,166.71
2023-01-28T01:37:44.967Z,167.54
2023-01-28T01:38:44.923Z,168.05
2023-01-28T01:39:44.894Z,168.56
2023-01-28T01:40:44.905Z,169.42
2023-01-28T01:41:44.878Z,170.11
2023-01-28T01:42:44.859Z,169.76
2023-01-28T01:43:44.841Z,169.76
2023-01-28T01:44:44.840Z,169.76
2023-01-28T01:45:44.859Z,170.11
2023-01-28T01:46:44.823Z,170.11
2023-01-28T01:47:44.829Z,171.33
2023-01-28T01:48:44.791Z,172.04
2023-01-28T01:49:44.787Z,172.57
2023-01-28T01:50:44.771Z,172.57
2023-01-28T01:51:44.786Z,172.93
2023-01-28T01:52:44.745Z,173.65
2023-01-28T01:53:44.736Z,174.37
2023-01-28T01:54:44.722Z,174.92
2023-01-28T01:55:44.718Z,175.10
2023-01-28T01:56:44.734Z,174.92
2023-01-28T01:57:44.722Z,174.55
2023-01-28T01:58:44.679Z,174.37
2023-01-28T01:59:44.695Z,174.74
2023-01-28T02:00:44.682Z,175.47
2023-01-28T02:01:44.657Z,175.84
2023-01-28T02:02:44.693Z,177.34
2023-01-28T02:03:44.693Z,177.34
2023-01-28T02:04:44.833Z,177.34
2023-01-28T02:05:44.653Z,177.71
2023-01-28T02:06:44.606Z,178.48
2023-01-28T02:07:44.618Z,179.24
2023-01-28T02:08:44.591Z,179.43
2023-01-28T02:09:44.565Z,179.43
2023-01-28T02:10:44.594Z,180.02
2023-01-28T02:11:44.545Z,180.40
2023-01-28T02:12:44.578Z,180.60
2023-01-28T02:13:44.532Z,180.40
2023-01-28T02:14:44.509Z,180.99
2023-01-28T02:15:44.504Z,181.38
2023-01-28T02:16:44.561Z,181.58
2023-01-28T02:17:44.482Z,182.38
2023-01-28T02:18:44.490Z,182.98
2023-01-28T02:19:44.458Z,183.38
2023-01-28T02:20:44.455Z,184.60
2023-01-28T02:21:44.471Z,185.83
2023-01-28T02:22:44.439Z,186.04
2023-01-28T02:23:44.411Z,184.79
2023-01-28T02:24:44.407Z,185.20
2023-01-28T02:25:44.406Z,186.47
2023-01-28T02:26:44.407Z,187.53
2023-01-28T02:27:44.372Z,187.96
2023-01-28T02:28:44.367Z,189.15
2023-01-28T02:29:44.359Z,190.03
2023-01-28T02:30:44.434Z,190.25
2023-01-28T02:31:44.466Z,189.81
2023-01-28T02:32:44.353Z,191.47
2023-01-28T02:33:44.315Z,192.03
2023-01-28T02:34:44.323Z,193.28
2023-01-28T02:35:44.288Z,193.62
2023-01-28T02:36:44.272Z,193.39
2023-01-28T02:37:44.280Z,193.16
2023-01-28T02:38:44.257Z,194.31
2023-01-28T02:39:44.260Z,193.85
2023-01-28T02:40:44.248Z,193.05
2023-01-28T02:41:44.247Z,193.28
2023-01-28T02:42:44.230Z,192.60
2023-01-28T02:43:44.218Z,193.28
2023-01-28T02:44:44.193Z,193.50
2023-01-28T02:45:44.182Z,194.88
2023-01-28T02:46:44.210Z,194.19
2023-01-28T02:47:44.165Z,194.65
2023-01-28T02:48:44.162Z,194.88
2023-01-28T02:49:44.143Z,196.05
2023-01-28T02:50:44.140Z,195.00
2023-01-28T02:51:44.140Z,196.63
2023-01-28T02:52:44.122Z,195.46
2023-01-28T02:53:44.152Z,196.63
2023-01-28T02:54:44.093Z,197.82
2023-01-28T02:55:44.098Z,196.99
2023-01-28T02:56:44.094Z,196.87
2023-01-28T02:57:44.052Z,197.70
2023-01-28T02:58:44.050Z,198.54
2023-01-28T02:59:44.040Z,198.18
2023-01-28T03:00:44.017Z,199.75
2023-01-28T03:01:44.079Z,199.14
2023-01-28T03:02:44.095Z,199.14
2023-01-28T03:03:44.014Z,199.63
2023-01-28T03:04:43.992Z,199.63
2023-01-28T03:05:43.972Z,201.59
2023-01-28T03:06:43.956Z,201.59
2023-01-28T03:07:43.947Z,202.09
2023-01-28T03:08:43.956Z,201.09
2023-01-28T03:09:43.932Z,202.33
2023-01-28T03:10:43.917Z,201.59
2023-01-28T03:11:43.897Z,201.96
2023-01-28T03:12:43.890Z,202.33
2023-01-28T03:13:43.900Z,203.09
2023-01-28T03:14:43.903Z,204.22
2023-01-28T03:15:43.899Z,204.73
2023-01-28T03:16:43.855Z,205.24
2023-01-28T03:17:43.863Z,206.15
2023-01-28T03:18:43.860Z,206.54
2023-01-28T03:19:43.817Z,208.37
2023-01-28T03:20:43.833Z,208.24
2023-01-28T03:21:43.796Z,208.37
2023-01-28T03:22:43.785Z,207.71
2023-01-28T03:23:43.775Z,208.51
2023-01-28T03:24:43.780Z,208.11
2023-01-28T03:25:43.753Z,207.58
2023-01-28T03:26:43.738Z,207.71
2023-01-28T03:27:43.747Z,206.80
2023-01-28T03:28:43.749Z,206.93
2023-01-28T03:29:43.726Z,207.32
2023-01-28T03:30:43.721Z,205.63
2023-01-28T03:31:43.686Z,206.54
2023-01-28T03:32:43.676Z,206.28
2023-01-28T03:33:43.682Z,205.24
2023-01-28T03:34:43.673Z,205.37
2023-01-28T03:35:43.654Z,204.86
2023-01-28T03:36:43.636Z,205.50
2023-01-28T03:37:43.635Z,206.02
2023-01-28T03:38:43.647Z,204.86
2023-01-28T03:39:43.603Z,207.58
2023-01-28T03:40:43.602Z,206.41
2023-01-28T03:41:43.577Z,207.19
2023-01-28T03:42:43.563Z,208.24
2023-01-28T03:43:43.552Z,207.85
2023-01-28T03:44:43.562Z,207.06
2023-01-28T03:45:43.563Z,207.06
2023-01-28T03:46:43.533Z,207.98
2023-01-28T03:47:43.522Z,206.93
2023-01-28T03:48:43.514Z,208.51
2023-01-28T03:49:43.533Z,208.77
2023-01-28T03:50:43.491Z,207.19
2023-01-28T03:51:43.475Z,208.64
2023-01-28T03:52:43.478Z,209.17
2023-01-28T03:53:43.451Z,209.57
2023-01-28T03:54:43.459Z,209.44
2023-01-28T03:55:43.466Z,209.71
2023-01-28T03:56:43.425Z,209.57
2023-01-28T03:57:43.409Z,209.17
2023-01-28T03:58:43.409Z,209.30
2023-01-28T03:59:43.385Z,209.30
2023-01-28T04:00:43.441Z,209.71
2023-01-28T04:01:43.390Z,210.11
2023-01-28T04:02:43.392Z,210.51
2023-01-28T04:03:43.342Z,209.57
2023-01-28T04:04:43.363Z,211.46
2023-01-28T04:05:43.343Z,211.19
2023-01-28T04:06:43.317Z,211.60
2023-01-28T04:07:43.308Z,210.65
2023-01-28T04:08:43.300Z,212.97
2023-01-28T04:09:43.310Z,211.87
2023-01-28T04:10:43.284Z,212.97
2023-01-28T04:11:43.271Z,212.28
2023-01-28T04:12:43.264Z,212.01
2023-01-28T04:13:43.252Z,211.46
2023-01-28T04:14:43.243Z,212.01
2023-01-28T04:15:43.225Z,211.46
2023-01-28T04:16:43.215Z,213.53
2023-01-28T04:17:43.232Z,211.87
2023-01-28T04:18:43.227Z,212.97
2023-01-28T04:19:43.184Z,212.56
2023-01-28T04:20:43.162Z,213.39
2023-01-28T04:21:43.155Z,214.50
2023-01-28T04:22:43.249Z,216.20
2023-01-28T04:23:43.158Z,214.50
2023-01-28T04:24:43.122Z,214.78
2023-01-28T04:25:43.122Z,214.78
2023-01-28T04:26:43.106Z,213.66
2023-01-28T04:27:43.098Z,213.66
2023-01-28T04:28:43.095Z,212.83
2023-01-28T04:29:43.076Z,213.66
2023-01-28T04:30:43.212Z,213.53
2023-01-28T04:31:43.100Z,214.50
2023-01-28T04:32:43.046Z,213.80
2023-01-28T04:33:43.023Z,214.50
2023-01-28T04:34:43.015Z,214.78
2023-01-28T04:35:43.031Z,214.50
2023-01-28T04:36:42.990Z,215.77
2023-01-28T04:37:43.005Z,215.35
2023-01-28T04:38:42.982Z,215.07
2023-01-28T04:39:42.973Z,217.06
2023-01-28T04:40:42.982Z,215.63
2023-01-28T04:41:42.945Z,217.92
2023-01-28T04:42:42.926Z,217.78
2023-01-28T04:43:42.915Z,218.50
2023-01-28T04:44:42.909Z,218.94
2023-01-28T04:45:42.910Z,220.26
2023-01-28T04:46:42.947Z,220.41
2023-01-28T04:47:42.875Z,221.45
2023-01-28T04:48:42.877Z,221.15
2023-01-28T04:49:42.854Z,221.30
2023-01-28T04:50:42.881Z,220.86
2023-01-28T04:51:42.839Z,221.30
2023-01-28T04:52:42.822Z,221.60
2023-01-28T04:53:42.831Z,222.05
2023-01-28T04:54:42.819Z,221.75
2023-01-28T04:55:42.809Z,221.45
2023-01-28T04:56:42.807Z,221.90
2023-01-28T04:57:42.764Z,221.30
2023-01-28T04:58:42.764Z,220.71
2023-01-28T04:59:42.758Z,220.26
2023-01-28T05:00:42.761Z,220.26
2023-01-28T05:01:42.771Z,221.30
2023-01-28T05:02:42.734Z,220.56
2023-01-28T05:03:42.715Z,221.45
2023-01-28T05:04:42.704Z,221.30
2023-01-28T05:05:42.698Z,222.50
2023-01-28T05:06:42.689Z,221.90
2023-01-28T05:07:42.693Z,223.11
2023-01-28T05:08:42.653Z,223.11
2023-01-28T05:09:42.655Z,223.41
2023-01-28T05:10:42.633Z,224.02
2023-01-28T05:11:42.619Z,223.57
2023-01-28T05:12:42.633Z,224.94
2023-01-28T05:13:42.601Z,224.33
2023-01-28T05:14:42.623Z,223.72
2023-01-28T05:15:42.580Z,224.94
2023-01-28T05:16:42.572Z,223.72
2023-01-28T05:17:42.610Z,223.87
2023-01-28T05:18:44.714Z,223.41
2023-01-28T05:19:42.570Z,223.41
2023-01-28T05:20:42.553Z,223.87
2023-01-28T05:21:42.518Z,223.72
2023-01-28T05:22:42.519Z,224.18
2023-01-28T05:23:42.509Z,223.26
2023-01-28T05:24:42.565Z,224.18
2023-01-28T05:25:42.480Z,225.10
2023-01-28T05:26:42.465Z,224.79
2023-01-28T05:27:42.460Z,225.10
2023-01-28T05:28:42.451Z,225.10
2023-01-28T05:29:42.454Z,226.03
2023-01-28T05:30:42.475Z,225.56
2023-01-28T05:31:42.436Z,226.03
2023-01-28T05:32:42.480Z,225.56
2023-01-28T05:33:42.397Z,226.50
2023-01-28T05:34:42.400Z,225.25
2023-01-28T05:35:42.375Z,226.81
2023-01-28T05:36:42.359Z,225.72
2023-01-28T05:37:42.349Z,227.60
2023-01-28T05:38:42.339Z,226.34
2023-01-28T05:39:42.352Z,226.97
2023-01-28T05:40:42.309Z,228.39
2023-01-28T05:41:42.310Z,227.44
2023-01-28T05:42:42.299Z,226.34
2023-01-28T05:43:42.292Z,226.34
2023-01-28T05:44:42.284Z,226.34
2023-01-28T05:45:42.331Z,226.97
2023-01-28T05:46:42.270Z,226.50
2023-01-28T05:47:44.825Z,226.65
2023-01-28T05:48:42.234Z,228.55
2023-01-28T05:49:42.243Z,227.91
2023-01-28T05:50:42.218Z,227.76
2023-01-28T05:51:42.195Z,229.83
2023-01-28T05:52:42.241Z,229.03
2023-01-28T05:53:42.190Z,230.31
2023-01-28T05:54:42.172Z,229.35
2023-01-28T05:55:42.160Z,228.87
2023-01-28T05:56:42.149Z,228.55
2023-01-28T05:57:42.156Z,229.19
2023-01-28T05:58:42.131Z,227.44
2023-01-28T05:59:42.119Z,228.23
2023-01-28T06:00:42.116Z,227.12
2023-01-28T06:01:42.094Z,229.67
2023-01-28T06:02:42.128Z,228.55
2023-01-28T06:03:42.082Z,228.07
2023-01-28T06:04:42.096Z,228.71
2023-01-28T06:05:42.107Z,227.76
2023-01-28T06:06:42.056Z,226.34
2023-01-28T06:07:42.045Z,229.35
2023-01-28T06:08:42.030Z,229.03
2023-01-28T06:09:42.020Z,229.83
2023-01-28T06:10:42.012Z,230.80
2023-01-28T06:11:41.998Z,229.67
2023-01-28T06:12:41.987Z,229.35
2023-01-28T06:13:41.970Z,229.67
2023-01-28T06:14:41.961Z,230.15
2023-01-28T06:15:42.001Z,231.12
2023-01-28T06:16:41.948Z,230.31
2023-01-28T06:17:41.950Z,231.45
2023-01-28T06:18:41.916Z,230.31
2023-01-28T06:19:41.902Z,230.15
2023-01-28T06:20:41.893Z,231.29
2023-01-28T06:21:41.884Z,230.48
2023-01-28T06:22:41.870Z,229.99
2023-01-28T06:23:41.869Z,230.15
2023-01-28T06:24:41.852Z,230.64
2023-01-28T06:25:41.842Z,230.15
2023-01-28T06:26:41.828Z,231.29
2023-01-28T06:27:41.820Z,232.60
2023-01-28T06:28:41.842Z,234.09
2023-01-28T06:29:41.800Z,233.09
2023-01-28T06:30:41.804Z,233.43
2023-01-28T06:31:41.779Z,235.27
2023-01-28T06:32:41.780Z,235.44
2023-01-28T06:33:41.820Z,235.27
2023-01-28T06:34:41.747Z,234.43
2023-01-28T06:35:41.755Z,235.10
2023-01-28T06:36:41.723Z,236.11
2023-01-28T06:37:41.737Z,236.28
2023-01-28T06:38:41.733Z,236.28
2023-01-28T06:39:41.696Z,237.14
2023-01-28T06:40:41.712Z,234.59
2023-01-28T06:41:41.685Z,235.77
2023-01-28T06:42:41.676Z,234.43
2023-01-28T06:43:41.686Z,234.93
2023-01-28T06:44:41.639Z,234.93
2023-01-28T06:45:41.649Z,234.76
2023-01-28T06:46:41.676Z,234.09
2023-01-28T06:47:41.604Z,234.76
2023-01-28T06:48:41.621Z,235.44
2023-01-28T06:49:41.596Z,233.59
2023-01-28T06:50:41.578Z,233.43
2023-01-28T06:51:41.571Z,233.59
2023-01-28T06:52:41.573Z,233.09
2023-01-28T06:53:41.563Z,232.76
2023-01-28T06:54:41.551Z,231.94
2023-01-28T06:55:41.520Z,231.61
2023-01-28T06:56:41.511Z,232.10
2023-01-28T06:57:41.502Z,231.29
2023-01-28T06:58:41.541Z,230.31
2023-01-28T06:59:41.488Z,231.12
2023-01-28T07:00:41.482Z,231.61
2023-01-28T07:01:41.501Z,231.12
2023-01-28T07:02:41.528Z,232.76
2023-01-28T07:03:41.466Z,232.43
2023-01-28T07:04:41.418Z,232.60
2023-01-28T07:05:41.419Z,231.29
2023-01-28T07:06:41.404Z,231.94
2023-01-28T07:07:42.105Z,232.43
2023-01-28T07:08:41.413Z,233.09
2023-01-28T07:09:41.371Z,232.60
2023-01-28T07:10:41.376Z,232.10
2023-01-28T07:11:41.359Z,232.76
2023-01-28T07:12:41.345Z,233.26
2023-01-28T07:13:41.333Z,232.10
2023-01-28T07:14:41.339Z,232.76
2023-01-28T07:15:41.323Z,232.27
2023-01-28T07:16:41.300Z,233.43
2023-01-28T07:17:41.302Z,232.27
2023-01-28T07:18:41.285Z,232.43
2023-01-28T07:19:41.294Z,233.59
2023-01-28T07:20:41.253Z,232.76
2023-01-28T07:21:41.245Z,231.61
2023-01-28T07:22:41.252Z,233.09
2023-01-28T07:23:41.234Z,233.59
2023-01-28T07:24:41.228Z,232.93
2023-01-28T07:25:41.223Z,232.93
2023-01-28T07:26:41.211Z,234.43
2023-01-28T07:27:41.191Z,233.26
2023-01-28T07:28:41.183Z,233.43
2023-01-28T07:29:41.159Z,232.10
2023-01-28T07:30:41.283Z,232.43
2023-01-28T07:31:41.328Z,231.12
2023-01-28T07:32:41.134Z,230.48
2023-01-28T07:33:41.119Z,230.64
2023-01-28T07:34:41.143Z,228.39
2023-01-28T07:35:41.094Z,229.67
2023-01-28T07:36:41.084Z,228.23
2023-01-28T07:37:41.084Z,228.71
2023-01-28T07:38:41.065Z,227.60
2023-01-28T07:39:41.064Z,228.23
2023-01-28T07:40:41.059Z,227.28
2023-01-28T07:41:41.040Z,227.28
2023-01-28T07:42:41.032Z,226.03
2023-01-28T07:43:41.028Z,226.81
2023-01-28T07:44:41.029Z,225.41
2023-01-28T07:45:41.024Z,226.34
2023-01-28T07:46:40.974Z,225.10
2023-01-28T07:47:40.973Z,225.72
2023-01-28T07:48:40.976Z,225.72
2023-01-28T07:49:40.942Z,225.56
2023-01-28T07:50:40.960Z,225.25
2023-01-28T07:51:40.935Z,226.34
2023-01-28T07:52:40.913Z,227.44
2023-01-28T07:53:40.951Z,227.44
2023-01-28T07:54:40.897Z,227.76
2023-01-28T07:55:40.914Z,228.71
2023-01-28T07:56:40.872Z,229.83
2023-01-28T07:57:40.857Z,230.48
2023-01-28T07:58:40.872Z,231.78
2023-01-28T07:59:40.851Z,231.29
2023-01-28T08:00:40.865Z,231.12
2023-01-28T08:01:40.849Z,230.15
2023-01-28T08:02:40.819Z,229.35
2023-01-28T08:03:40.816Z,229.51
2023-01-28T08:04:40.995Z,228.87
2023-01-28T08:05:40.808Z,228.23
2023-01-28T08:06:40.765Z,228.87
2023-01-28T08:07:40.751Z,229.19
2023-01-28T08:08:40.752Z,230.15
2023-01-28T08:09:40.753Z,229.83
2023-01-28T08:10:40.749Z,231.61
2023-01-28T08:11:40.721Z,232.76
2023-01-28T08:12:40.699Z,232.43
2023-01-28T08:13:40.692Z,233.93
2023-01-28T08:14:40.683Z,233.76
2023-01-28T08:15:40.746Z,233.26
2023-01-28T08:16:40.669Z,234.09
2023-01-28T08:17:40.667Z,233.59
2023-01-28T08:18:40.649Z,234.26
2023-01-28T08:19:40.654Z,234.76
2023-01-28T08:20:40.635Z,233.59
2023-01-28T08:21:40.621Z,233.09
2023-01-28T08:22:40.591Z,232.60
2023-01-28T08:23:40.590Z,232.76
2023-01-28T08:24:40.583Z,232.43
2023-01-28T08:25:40.570Z,232.27
2023-01-28T08:26:40.569Z,232.76
2023-01-28T08:27:40.549Z,232.76
2023-01-28T08:28:40.555Z,231.45
2023-01-28T08:29:40.516Z,231.94
2023-01-28T08:30:40.545Z,231.61
2023-01-28T08:31:40.540Z,231.78
2023-01-28T08:32:40.492Z,233.59
2023-01-28T08:33:40.483Z,232.43
2023-01-28T08:34:40.475Z,231.94
2023-01-28T08:35:40.504Z,232.43
2023-01-28T08:36:40.453Z,232.43
2023-01-28T08:37:40.430Z,231.94
2023-01-28T08:38:40.432Z,232.60
2023-01-28T08:39:40.420Z,232.43
2023-01-28T08:40:40.544Z,231.61
2023-01-28T08:41:40.387Z,230.15
2023-01-28T08:42:40.387Z,229.67
2023-01-28T08:43:40.367Z,229.19
2023-01-28T08:44:40.379Z,227.28
2023-01-28T08:45:40.357Z,226.81
2023-01-28T08:46:40.405Z,226.97
2023-01-28T08:47:40.328Z,226.81
2023-01-28T08:48:40.330Z,225.56
2023-01-28T08:49:40.312Z,226.34
2023-01-28T08:50:40.366Z,225.72
2023-01-28T08:51:40.301Z,225.10
2023-01-28T08:52:40.285Z,225.87
2023-01-28T08:53:40.267Z,226.34
2023-01-28T08:54:40.271Z,226.65
2023-01-28T08:55:40.252Z,226.81
2023-01-28T08:56:40.256Z,227.60
2023-01-28T08:57:40.223Z,228.55
2023-01-28T08:58:40.221Z,228.07
2023-01-28T08:59:40.231Z,227.28
2023-01-28T09:00:40.206Z,227.76
2023-01-28T09:01:40.229Z,227.91
2023-01-28T09:02:40.198Z,226.81
2023-01-28T09:03:40.208Z,228.55
2023-01-28T09:04:40.155Z,230.31
2023-01-28T09:05:40.149Z,230.80
2023-01-28T09:06:40.136Z,231.12
2023-01-28T09:07:40.125Z,231.45
2023-01-28T09:08:40.126Z,232.10
2023-01-28T09:09:40.114Z,230.96
2023-01-28T09:10:40.094Z,231.78
2023-01-28T09:11:40.088Z,231.78
2023-01-28T09:12:40.063Z,231.78
2023-01-28T09:13:40.080Z,232.10
2023-01-28T09:14:40.052Z,232.60
2023-01-28T09:15:40.033Z,234.09
2023-01-28T09:16:40.016Z,235.44
2023-01-28T09:17:40.221Z,237.14
2023-01-28T09:18:40.009Z,237.65
2023-01-28T09:19:39.997Z,238.00
2023-01-28T09:20:40.046Z,239.91
2023-01-28T09:21:39.960Z,238.52
2023-01-28T09:22:39.960Z,239.74
2023-01-28T09:23:39.960Z,240.44
2023-01-28T09:24:39.952Z,241.86
2023-01-28T09:25:39.953Z,242.04
2023-01-28T09:26:39.909Z,242.39
2023-01-28T09:27:39.907Z,242.93
2023-01-28T09:28:39.909Z,243.65
2023-01-28T09:29:39.924Z,245.66
2023-01-28T09:30:40.001Z,245.29
2023-01-28T09:31:39.889Z,245.48
2023-01-28T09:32:39.852Z,246.03
2023-01-28T09:33:39.857Z,246.03
2023-01-28T09:34:39.835Z,246.77
2023-01-28T09:35:39.847Z,248.26
2023-01-28T09:36:39.823Z,249.20
2023-01-28T09:37:39.834Z,248.83
2023-01-28T09:38:40.276Z,249.39
2023-01-28T09:39:39.779Z,248.07
2023-01-28T09:40:39.775Z,248.64
2023-01-28T09:41:39.754Z,246.58
2023-01-28T09:42:39.744Z,245.29
2023-01-28T09:43:39.759Z,244.93
2023-01-28T09:44:39.722Z,244.01
2023-01-28T09:45:39.715Z,241.68
2023-01-28T09:46:39.716Z,242.21
2023-01-28T09:47:39.695Z,241.32
2023-01-28T09:48:39.680Z,240.62
2023-01-28T09:49:39.686Z,241.32
2023-01-28T09:50:39.658Z,240.79
2023-01-28T09:51:39.638Z,240.62
2023-01-28T09:52:39.642Z,242.04
2023-01-28T09:53:39.638Z,243.65
2023-01-28T09:54:39.607Z,243.47
2023-01-28T09:55:39.618Z,247.70
2023-01-28T09:56:39.593Z,248.83
2023-01-28T09:57:39.582Z,251.69
2023-01-28T09:58:39.594Z,252.46
2023-01-28T09:59:39.562Z,254.62
2023-01-28T10:00:39.588Z,257.21
2023-01-28T10:01:39.544Z,260.27
2023-01-28T10:02:39.526Z,263.41
2023-01-28T10:03:39.580Z,266.19
2023-01-28T10:04:39.508Z,267.49
2023-01-28T10:05:40.949Z,269.24
2023-01-28T10:06:39.491Z,272.83
2023-01-28T10:07:39.494Z,276.04
2023-01-28T10:08:39.468Z,274.88
2023-01-28T10:09:39.471Z,278.15
2023-01-28T10:10:39.446Z,276.74
2023-01-28T10:11:39.436Z,276.04
2023-01-28T10:12:39.424Z,275.58
2023-01-28T10:13:39.406Z,277.21
2023-01-28T10:14:39.422Z,277.44
2023-01-28T10:15:39.395Z,278.86
2023-01-28T10:16:39.380Z,279.81
2023-01-28T10:17:39.441Z,281.49
2023-01-28T10:18:39.365Z,282.70
2023-01-28T10:19:39.364Z,283.92
2023-01-28T10:20:39.346Z,282.94
2023-01-28T10:21:39.334Z,284.66
2023-01-28T10:22:39.317Z,285.90
2023-01-28T10:23:39.320Z,286.15
2023-01-28T10:24:39.313Z,287.91
2023-01-28T10:25:39.314Z,287.91
2023-01-28T10:26:39.279Z,290.71
2023-01-28T10:27:39.276Z,289.69
2023-01-28T10:28:39.262Z,292.27
2023-01-28T10:29:39.272Z,294.10
2023-01-28T10:30:39.277Z,293.84
2023-01-28T10:31:39.373Z,296.23
2023-01-28T10:32:39.216Z,297.84
2023-01-28T10:33:39.197Z,300.84
2023-01-28T10:34:39.207Z,302.79
2023-01-28T10:35:39.190Z,303.35
2023-01-28T10:36:39.171Z,303.35
2023-01-28T10:37:39.164Z,304.47
2023-01-28T10:38:39.161Z,305.04
2023-01-28T10:39:39.150Z,304.47
2023-01-28T10:40:39.140Z,305.61
2023-01-28T10:41:48.508Z,307.61
2023-01-28T10:42:40.107Z,307.33
2023-01-28T10:43:39.101Z,307.04
2023-01-28T10:44:39.101Z,309.06
2023-01-28T10:45:39.129Z,309.64
2023-01-28T10:46:39.056Z,310.82
2023-01-28T10:47:39.061Z,312.60
2023-01-28T10:48:39.075Z,314.69
2023-01-28T10:49:39.054Z,314.69
2023-01-28T10:50:39.038Z,317.74
2023-01-28T10:51:39.028Z,317.74
2023-01-28T10:52:39.010Z,321.48
2023-01-28T10:53:39.003Z,321.48
2023-01-28T10:54:38.987Z,324.02
2023-01-28T10:55:38.994Z,326.92
2023-01-28T10:56:38.954Z,326.92
2023-01-28T10:57:38.947Z,327.25
2023-01-28T10:58:38.931Z,328.89
2023-01-28T10:59:38.930Z,329.55
2023-01-28T11:00:38.938Z,327.90
2023-01-28T11:01:38.906Z,329.55
2023-01-28T11:02:38.926Z,328.56
2023-01-28T11:03:38.896Z,329.22
2023-01-28T11:04:38.871Z,331.88
2023-01-28T11:05:38.891Z,332.22
2023-01-28T11:06:38.850Z,332.22
2023-01-28T11:07:38.846Z,331.88
2023-01-28T11:08:38.829Z,332.22
2023-01-28T11:09:38.814Z,331.55
2023-01-28T11:10:38.825Z,331.55
2023-01-28T11:11:38.806Z,330.88
2023-01-28T11:12:38.782Z,330.55
2023-01-28T11:13:38.777Z,330.88
2023-01-28T11:14:46.502Z,329.88
2023-01-28T11:15:38.776Z,332.22
2023-01-28T11:16:38.739Z,329.88
2023-01-28T11:17:38.829Z,331.55
2023-01-28T11:18:38.734Z,331.88
2023-01-28T11:19:47.429Z,331.21
2023-01-28T11:20:39.793Z,331.88
2023-01-28T11:21:38.794Z,333.57
2023-01-28T11:22:38.691Z,333.91
2023-01-28T11:23:38.681Z,333.57
2023-01-28T11:24:38.719Z,334.59
2023-01-28T11:25:38.694Z,332.89
2023-01-28T11:26:38.643Z,332.55
2023-01-28T11:27:38.701Z,331.88
2023-01-28T11:28:38.645Z,331.55
2023-01-28T11:29:38.697Z,329.88
2023-01-28T11:30:38.672Z,330.21
2023-01-28T11:31:38.808Z,329.88
2023-01-28T11:32:38.578Z,327.58
2023-01-28T11:33:38.636Z,326.92
2023-01-28T11:34:38.622Z,326.92
2023-01-28T11:35:38.685Z,325.62
2023-01-28T11:36:38.804Z,324.02
2023-01-28T11:37:38.538Z,322.42
2023-01-28T11:38:38.560Z,322.11
2023-01-28T11:39:38.520Z,320.54
2023-01-28T11:40:38.571Z,321.79
2023-01-28T11:41:38.792Z,321.79
2023-01-28T11:42:39.622Z,322.74
2023-01-28T11:43:38.536Z,323.38
2023-01-28T11:44:38.630Z,323.38
2023-01-28T11:45:39.115Z,324.34
2023-01-28T11:46:38.573Z,323.38
2023-01-28T11:47:38.446Z,325.62
2023-01-28T11:48:38.439Z,326.92
2023-01-28T11:49:46.160Z,326.60
2023-01-28T11:50:38.385Z,328.56
2023-01-28T11:51:38.385Z,329.22
2023-01-28T11:53:02.517Z,332.55
2023-01-28T11:53:39.349Z,334.93
2023-01-28T11:54:38.353Z,337.69
2023-01-28T11:55:38.371Z,340.49
2023-01-28T11:56:38.321Z,341.55
2023-01-28T11:57:38.311Z,344.06
2023-01-28T11:58:38.293Z,344.79
2023-01-28T11:59:38.289Z,344.79
2023-01-28T12:00:38.272Z,344.06
2023-01-28T12:01:38.288Z,344.42
2023-01-28T12:02:38.263Z,344.79
2023-01-28T12:03:38.248Z,344.06
2023-01-28T12:04:38.280Z,343.70
2023-01-28T12:05:38.230Z,344.79
2023-01-28T12:06:38.237Z,344.06
2023-01-28T12:07:38.201Z,344.79
2023-01-28T12:08:38.195Z,345.88
2023-01-28T12:09:38.189Z,344.79
2023-01-28T12:10:38.165Z,346.97
2023-01-28T12:11:38.164Z,345.15
2023-01-28T12:12:38.170Z,346.24
2023-01-28T12:13:38.136Z,346.61
2023-01-28T12:14:38.151Z,345.51
2023-01-28T12:15:38.149Z,345.88
2023-01-28T12:16:38.096Z,348.08
2023-01-28T12:17:38.174Z,348.45
2023-01-28T12:18:38.081Z,346.97
2023-01-28T12:19:38.069Z,349.19
2023-01-28T12:20:38.066Z,349.56
2023-01-28T12:21:38.046Z,352.19
2023-01-28T12:22:38.051Z,352.95
2023-01-28T12:23:38.025Z,351.81
2023-01-28T12:24:38.027Z,352.95
2023-01-28T12:25:38.006Z,351.06
2023-01-28T12:26:38.018Z,353.71
2023-01-28T12:27:37.999Z,356.39
2023-01-28T12:28:38.012Z,356.39